sensor_id;sensor_type;location;lat;lon;timestamp;P1;durP1;ratioP1;P2;durP2;ratioP2
19193;SDS011;9729;52.296;13.260;2024-02-21T00:01:01;23.20;;;7.03;;
19193;SDS011;9729;52.296;13.260;2024-02-21T00:03:27;26.87;;;8.30;;
19193;SDS011;9729;52.296;13.260;2024-02-21T00:05:53;25.70;;;7.90;;
19193;SDS011;9729;52.296;13.260;2024-02-21T00:08:21;21.57;;;7.73;;
19193;SDS011;9729;52.296;13.260;2024-02-21T00:10:47;19.97;;;7.30;;
19193;SDS011;9729;52.296;13.260;2024-02-21T00:13:14;26.20;;;7.80;;
19193;SDS011;9729;52.296;13.260;2024-02-21T00:15:40;24.83;;;8.63;;
19193;SDS011;9729;52.296;13.260;2024-02-21T00:18:07;25.47;;;8.77;;
19193;SDS011;9729;52.296;13.260;2024-02-21T00:20:33;22.43;;;7.87;;
19193;SDS011;9729;52.296;13.260;2024-02-21T00:22:59;24.20;;;7.87;;
19193;SDS011;9729;52.296;13.260;2024-02-21T00:25:27;31.33;;;9.27;;
19193;SDS011;9729;52.296;13.260;2024-02-21T00:27:53;30.33;;;8.07;;
19193;SDS011;9729;52.296;13.260;2024-02-21T00:30:20;18.73;;;7.67;;
19193;SDS011;9729;52.296;13.260;2024-02-21T00:32:46;25.10;;;7.33;;
19193;SDS011;9729;52.296;13.260;2024-02-21T00:35:13;22.10;;;7.67;;
19193;SDS011;9729;52.296;13.260;2024-02-21T00:37:39;16.90;;;7.53;;
19193;SDS011;9729;52.296;13.260;2024-02-21T00:40:06;31.50;;;9.83;;
19193;SDS011;9729;52.296;13.260;2024-02-21T00:42:34;30.03;;;8.47;;
19193;SDS011;9729;52.296;13.260;2024-02-21T00:45:00;26.57;;;8.33;;
19193;SDS011;9729;52.296;13.260;2024-02-21T00:47:27;23.10;;;8.40;;
19193;SDS011;9729;52.296;13.260;2024-02-21T00:49:53;24.57;;;8.60;;
19193;SDS011;9729;52.296;13.260;2024-02-21T00:52:20;31.97;;;8.00;;
19193;SDS011;9729;52.296;13.260;2024-02-21T00:54:46;26.93;;;7.87;;
19193;SDS011;9729;52.296;13.260;2024-02-21T00:57:14;24.47;;;7.20;;
19193;SDS011;9729;52.296;13.260;2024-02-21T00:59:41;23.00;;;7.70;;
19193;SDS011;9729;52.296;13.260;2024-02-21T01:02:08;23.23;;;7.83;;
19193;SDS011;9729;52.296;13.260;2024-02-21T01:04:34;28.40;;;9.57;;
19193;SDS011;9729;52.296;13.260;2024-02-21T01:07:01;20.77;;;8.23;;
19193;SDS011;9729;52.296;13.260;2024-02-21T01:09:27;23.17;;;7.37;;
19193;SDS011;9729;52.296;13.260;2024-02-21T01:11:54;21.67;;;7.40;;
19193;SDS011;9729;52.296;13.260;2024-02-21T01:14:20;22.97;;;7.07;;
19193;SDS011;9729;52.296;13.260;2024-02-21T01:16:48;21.97;;;8.77;;
19193;SDS011;9729;52.296;13.260;2024-02-21T01:19:14;22.27;;;7.97;;
19193;SDS011;9729;52.296;13.260;2024-02-21T01:21:40;19.07;;;8.77;;
19193;SDS011;9729;52.296;13.260;2024-02-21T01:24:07;24.93;;;6.87;;
19193;SDS011;9729;52.296;13.260;2024-02-21T01:26:33;16.30;;;7.13;;
19193;SDS011;9729;52.296;13.260;2024-02-21T01:28:59;18.77;;;6.73;;
19193;SDS011;9729;52.296;13.260;2024-02-21T01:31:26;24.83;;;7.20;;
19193;SDS011;9729;52.296;13.260;2024-02-21T01:33:53;21.13;;;6.97;;
19193;SDS011;9729;52.296;13.260;2024-02-21T01:36:20;17.30;;;6.60;;
19193;SDS011;9729;52.296;13.260;2024-02-21T01:38:47;24.00;;;7.33;;
19193;SDS011;9729;52.296;13.260;2024-02-21T01:41:13;21.93;;;7.80;;
19193;SDS011;9729;52.296;13.260;2024-02-21T01:43:39;27.63;;;6.90;;
19193;SDS011;9729;52.296;13.260;2024-02-21T01:46:05;24.23;;;7.20;;
19193;SDS011;9729;52.296;13.260;2024-02-21T01:48:32;29.07;;;7.30;;
19193;SDS011;9729;52.296;13.260;2024-02-21T01:51:00;24.83;;;7.50;;
19193;SDS011;9729;52.296;13.260;2024-02-21T01:53:29;22.73;;;7.60;;
19193;SDS011;9729;52.296;13.260;2024-02-21T01:55:56;25.70;;;8.20;;
19193;SDS011;9729;52.296;13.260;2024-02-21T01:58:22;21.87;;;7.20;;
19193;SDS011;9729;52.296;13.260;2024-02-21T02:00:49;18.20;;;6.67;;
19193;SDS011;9729;52.296;13.260;2024-02-21T02:03:16;18.53;;;7.53;;
19193;SDS011;9729;52.296;13.260;2024-02-21T02:05:43;27.80;;;7.33;;
19193;SDS011;9729;52.296;13.260;2024-02-21T02:08:12;31.03;;;8.37;;
19193;SDS011;9729;52.296;13.260;2024-02-21T02:10:38;23.83;;;7.17;;
19193;SDS011;9729;52.296;13.260;2024-02-21T02:13:06;21.33;;;6.83;;
19193;SDS011;9729;52.296;13.260;2024-02-21T02:15:37;23.47;;;7.63;;
19193;SDS011;9729;52.296;13.260;2024-02-21T02:18:04;27.77;;;6.70;;
19193;SDS011;9729;52.296;13.260;2024-02-21T02:20:30;20.70;;;7.23;;
19193;SDS011;9729;52.296;13.260;2024-02-21T02:22:57;25.37;;;6.97;;
19193;SDS011;9729;52.296;13.260;2024-02-21T02:25:25;25.50;;;7.43;;
19193;SDS011;9729;52.296;13.260;2024-02-21T02:27:52;31.43;;;8.50;;
19193;SDS011;9729;52.296;13.260;2024-02-21T02:30:19;19.63;;;8.53;;
19193;SDS011;9729;52.296;13.260;2024-02-21T02:32:46;30.77;;;8.57;;
19193;SDS011;9729;52.296;13.260;2024-02-21T02:35:12;24.53;;;8.00;;
19193;SDS011;9729;52.296;13.260;2024-02-21T02:37:39;20.47;;;7.17;;
19193;SDS011;9729;52.296;13.260;2024-02-21T02:40:06;32.47;;;7.80;;
19193;SDS011;9729;52.296;13.260;2024-02-21T02:42:34;25.30;;;9.90;;
19193;SDS011;9729;52.296;13.260;2024-02-21T02:45:00;29.37;;;8.53;;
19193;SDS011;9729;52.296;13.260;2024-02-21T02:47:27;24.70;;;7.53;;
19193;SDS011;9729;52.296;13.260;2024-02-21T02:49:53;23.93;;;7.43;;
19193;SDS011;9729;52.296;13.260;2024-02-21T02:52:19;21.80;;;7.67;;
19193;SDS011;9729;52.296;13.260;2024-02-21T02:54:46;20.93;;;7.13;;
19193;SDS011;9729;52.296;13.260;2024-02-21T02:57:16;33.23;;;9.30;;
19193;SDS011;9729;52.296;13.260;2024-02-21T02:59:48;20.40;;;7.33;;
19193;SDS011;9729;52.296;13.260;2024-02-21T03:02:14;22.47;;;8.00;;
19193;SDS011;9729;52.296;13.260;2024-02-21T03:04:40;36.70;;;8.90;;
19193;SDS011;9729;52.296;13.260;2024-02-21T03:07:07;26.33;;;8.10;;
19193;SDS011;9729;52.296;13.260;2024-02-21T03:09:33;34.53;;;9.00;;
19193;SDS011;9729;52.296;13.260;2024-02-21T03:11:59;31.13;;;8.77;;
19193;SDS011;9729;52.296;13.260;2024-02-21T03:14:28;25.63;;;8.00;;
19193;SDS011;9729;52.296;13.260;2024-02-21T03:16:56;29.77;;;8.37;;
19193;SDS011;9729;52.296;13.260;2024-02-21T03:19:22;24.40;;;7.80;;
19193;SDS011;9729;52.296;13.260;2024-02-21T03:21:49;16.23;;;7.17;;
19193;SDS011;9729;52.296;13.260;2024-02-21T03:24:15;21.17;;;7.53;;
19193;SDS011;9729;52.296;13.260;2024-02-21T03:26:42;32.07;;;9.20;;
19193;SDS011;9729;52.296;13.260;2024-02-21T03:29:08;27.77;;;7.90;;
19193;SDS011;9729;52.296;13.260;2024-02-21T03:31:36;21.70;;;7.73;;
19193;SDS011;9729;52.296;13.260;2024-02-21T03:34:03;22.33;;;8.10;;
19193;SDS011;9729;52.296;13.260;2024-02-21T03:36:30;22.63;;;7.67;;
19193;SDS011;9729;52.296;13.260;2024-02-21T03:38:56;24.40;;;8.60;;
19193;SDS011;9729;52.296;13.260;2024-02-21T03:41:23;27.83;;;8.37;;
19193;SDS011;9729;52.296;13.260;2024-02-21T03:43:49;27.90;;;7.73;;
19193;SDS011;9729;52.296;13.260;2024-02-21T03:46:16;28.17;;;9.50;;
19193;SDS011;9729;52.296;13.260;2024-02-21T03:48:42;31.00;;;7.93;;
19193;SDS011;9729;52.296;13.260;2024-02-21T03:51:09;28.67;;;10.27;;
19193;SDS011;9729;52.296;13.260;2024-02-21T03:53:36;31.70;;;9.83;;
19193;SDS011;9729;52.296;13.260;2024-02-21T03:56:02;28.67;;;8.83;;
19193;SDS011;9729;52.296;13.260;2024-02-21T03:58:29;40.87;;;9.33;;
19193;SDS011;9729;52.296;13.260;2024-02-21T04:00:56;27.43;;;9.07;;
19193;SDS011;9729;52.296;13.260;2024-02-21T04:03:22;25.73;;;8.07;;
19193;SDS011;9729;52.296;13.260;2024-02-21T04:05:49;28.43;;;9.13;;
19193;SDS011;9729;52.296;13.260;2024-02-21T04:08:17;27.67;;;11.10;;
19193;SDS011;9729;52.296;13.260;2024-02-21T04:10:43;22.40;;;8.80;;
19193;SDS011;9729;52.296;13.260;2024-02-21T04:13:09;32.13;;;10.63;;
19193;SDS011;9729;52.296;13.260;2024-02-21T04:15:36;23.90;;;9.53;;
19193;SDS011;9729;52.296;13.260;2024-02-21T04:18:02;26.10;;;8.53;;
19193;SDS011;9729;52.296;13.260;2024-02-21T04:20:29;27.57;;;8.53;;
19193;SDS011;9729;52.296;13.260;2024-02-21T04:22:55;22.87;;;9.87;;
19193;SDS011;9729;52.296;13.260;2024-02-21T04:25:23;25.33;;;8.07;;
19193;SDS011;9729;52.296;13.260;2024-02-21T04:27:49;26.37;;;9.23;;
19193;SDS011;9729;52.296;13.260;2024-02-21T04:30:16;35.10;;;8.83;;
19193;SDS011;9729;52.296;13.260;2024-02-21T04:32:42;36.57;;;9.50;;
19193;SDS011;9729;52.296;13.260;2024-02-21T04:35:09;26.23;;;10.13;;
19193;SDS011;9729;52.296;13.260;2024-02-21T04:37:35;26.93;;;8.77;;
19193;SDS011;9729;52.296;13.260;2024-02-21T04:40:01;29.00;;;8.83;;
19193;SDS011;9729;52.296;13.260;2024-02-21T04:42:29;24.13;;;8.70;;
19193;SDS011;9729;52.296;13.260;2024-02-21T04:44:55;35.73;;;9.23;;
19193;SDS011;9729;52.296;13.260;2024-02-21T04:47:22;21.77;;;8.53;;
19193;SDS011;9729;52.296;13.260;2024-02-21T04:49:49;29.40;;;8.70;;
19193;SDS011;9729;52.296;13.260;2024-02-21T04:52:16;31.20;;;9.70;;
19193;SDS011;9729;52.296;13.260;2024-02-21T04:54:42;43.87;;;9.40;;
19193;SDS011;9729;52.296;13.260;2024-02-21T04:57:08;28.73;;;9.83;;
19193;SDS011;9729;52.296;13.260;2024-02-21T04:59:36;35.47;;;9.57;;
19193;SDS011;9729;52.296;13.260;2024-02-21T05:02:03;21.23;;;9.33;;
19193;SDS011;9729;52.296;13.260;2024-02-21T05:04:29;27.57;;;9.10;;
19193;SDS011;9729;52.296;13.260;2024-02-21T05:06:56;29.77;;;8.97;;
19193;SDS011;9729;52.296;13.260;2024-02-21T05:09:22;20.23;;;8.87;;
19193;SDS011;9729;52.296;13.260;2024-02-21T05:11:48;23.07;;;9.17;;
19193;SDS011;9729;52.296;13.260;2024-02-21T05:14:15;27.13;;;9.70;;
19193;SDS011;9729;52.296;13.260;2024-02-21T05:16:42;24.27;;;9.00;;
19193;SDS011;9729;52.296;13.260;2024-02-21T05:19:09;29.63;;;9.10;;
19193;SDS011;9729;52.296;13.260;2024-02-21T05:21:35;28.60;;;10.03;;
19193;SDS011;9729;52.296;13.260;2024-02-21T05:24:01;25.23;;;8.83;;
19193;SDS011;9729;52.296;13.260;2024-02-21T05:26:28;43.83;;;9.57;;
19193;SDS011;9729;52.296;13.260;2024-02-21T05:28:54;29.37;;;10.03;;
19193;SDS011;9729;52.296;13.260;2024-02-21T05:31:21;31.27;;;9.40;;
19193;SDS011;9729;52.296;13.260;2024-02-21T05:33:48;27.87;;;9.80;;
19193;SDS011;9729;52.296;13.260;2024-02-21T05:36:14;26.53;;;10.47;;
19193;SDS011;9729;52.296;13.260;2024-02-21T05:38:41;33.83;;;9.73;;
19193;SDS011;9729;52.296;13.260;2024-02-21T05:41:07;24.53;;;9.03;;
19193;SDS011;9729;52.296;13.260;2024-02-21T05:43:33;22.37;;;9.33;;
19193;SDS011;9729;52.296;13.260;2024-02-21T05:46:00;33.70;;;9.93;;
19193;SDS011;9729;52.296;13.260;2024-02-21T05:48:26;24.73;;;8.77;;
19193;SDS011;9729;52.296;13.260;2024-02-21T05:50:54;30.57;;;9.90;;
19193;SDS011;9729;52.296;13.260;2024-02-21T05:53:20;27.33;;;9.60;;
19193;SDS011;9729;52.296;13.260;2024-02-21T05:55:46;29.60;;;8.83;;
19193;SDS011;9729;52.296;13.260;2024-02-21T05:58:13;30.03;;;9.93;;
19193;SDS011;9729;52.296;13.260;2024-02-21T06:00:39;31.00;;;9.30;;
19193;SDS011;9729;52.296;13.260;2024-02-21T06:03:05;23.90;;;9.17;;
19193;SDS011;9729;52.296;13.260;2024-02-21T06:05:36;23.73;;;9.80;;
19193;SDS011;9729;52.296;13.260;2024-02-21T06:08:04;20.43;;;10.53;;
19193;SDS011;9729;52.296;13.260;2024-02-21T06:10:31;23.33;;;9.37;;
19193;SDS011;9729;52.296;13.260;2024-02-21T06:12:57;27.60;;;10.40;;
19193;SDS011;9729;52.296;13.260;2024-02-21T06:15:24;35.40;;;10.37;;
19193;SDS011;9729;52.296;13.260;2024-02-21T06:17:50;30.67;;;10.53;;
19193;SDS011;9729;52.296;13.260;2024-02-21T06:20:16;25.67;;;9.43;;
19193;SDS011;9729;52.296;13.260;2024-02-21T06:22:43;23.53;;;10.67;;
19193;SDS011;9729;52.296;13.260;2024-02-21T06:25:11;20.87;;;8.80;;
19193;SDS011;9729;52.296;13.260;2024-02-21T06:27:37;23.60;;;10.30;;
19193;SDS011;9729;52.296;13.260;2024-02-21T06:30:04;31.50;;;9.67;;
19193;SDS011;9729;52.296;13.260;2024-02-21T06:32:31;27.97;;;10.27;;
19193;SDS011;9729;52.296;13.260;2024-02-21T06:34:57;27.77;;;9.67;;
19193;SDS011;9729;52.296;13.260;2024-02-21T06:37:23;31.20;;;10.73;;
19193;SDS011;9729;52.296;13.260;2024-02-21T06:39:50;37.13;;;10.73;;
19193;SDS011;9729;52.296;13.260;2024-02-21T06:42:17;29.13;;;11.03;;
19193;SDS011;9729;52.296;13.260;2024-02-21T06:44:44;26.50;;;10.03;;
19193;SDS011;9729;52.296;13.260;2024-02-21T06:47:10;30.90;;;11.20;;
19193;SDS011;9729;52.296;13.260;2024-02-21T06:49:37;28.43;;;10.47;;
19193;SDS011;9729;52.296;13.260;2024-02-21T06:52:03;39.10;;;10.27;;
19193;SDS011;9729;52.296;13.260;2024-02-21T06:54:30;26.93;;;10.47;;
19193;SDS011;9729;52.296;13.260;2024-02-21T06:56:56;20.10;;;9.70;;
19193;SDS011;9729;52.296;13.260;2024-02-21T06:59:24;30.87;;;11.00;;
19193;SDS011;9729;52.296;13.260;2024-02-21T07:01:52;32.93;;;11.00;;
19193;SDS011;9729;52.296;13.260;2024-02-21T07:04:19;33.67;;;11.07;;
19193;SDS011;9729;52.296;13.260;2024-02-21T07:06:46;30.57;;;10.30;;
19193;SDS011;9729;52.296;13.260;2024-02-21T07:09:12;24.73;;;9.00;;
19193;SDS011;9729;52.296;13.260;2024-02-21T07:11:38;26.00;;;10.23;;
19193;SDS011;9729;52.296;13.260;2024-02-21T07:14:05;21.33;;;9.47;;
19193;SDS011;9729;52.296;13.260;2024-02-21T07:16:32;20.23;;;9.70;;
19193;SDS011;9729;52.296;13.260;2024-02-21T07:18:59;36.93;;;12.03;;
19193;SDS011;9729;52.296;13.260;2024-02-21T07:21:25;30.43;;;10.70;;
19193;SDS011;9729;52.296;13.260;2024-02-21T07:23:51;31.07;;;10.90;;
19193;SDS011;9729;52.296;13.260;2024-02-21T07:26:18;29.00;;;11.37;;
19193;SDS011;9729;52.296;13.260;2024-02-21T07:28:44;27.63;;;9.13;;
19193;SDS011;9729;52.296;13.260;2024-02-21T07:31:11;29.67;;;10.67;;
19193;SDS011;9729;52.296;13.260;2024-02-21T07:33:38;44.40;;;11.63;;
19193;SDS011;9729;52.296;13.260;2024-02-21T07:36:05;34.57;;;11.40;;
19193;SDS011;9729;52.296;13.260;2024-02-21T07:38:32;26.53;;;10.30;;
19193;SDS011;9729;52.296;13.260;2024-02-21T07:40:58;28.07;;;9.70;;
19193;SDS011;9729;52.296;13.260;2024-02-21T07:43:25;24.40;;;9.70;;
19193;SDS011;9729;52.296;13.260;2024-02-21T07:45:51;23.73;;;9.53;;
19193;SDS011;9729;52.296;13.260;2024-02-21T07:48:18;29.43;;;9.80;;
19193;SDS011;9729;52.296;13.260;2024-02-21T07:50:46;28.27;;;9.43;;
19193;SDS011;9729;52.296;13.260;2024-02-21T07:53:12;23.90;;;10.50;;
19193;SDS011;9729;52.296;13.260;2024-02-21T07:55:38;30.03;;;10.07;;
19193;SDS011;9729;52.296;13.260;2024-02-21T07:58:04;21.83;;;9.43;;
19193;SDS011;9729;52.296;13.260;2024-02-21T08:00:31;33.70;;;10.03;;
19193;SDS011;9729;52.296;13.260;2024-02-21T08:02:58;24.93;;;10.37;;
19193;SDS011;9729;52.296;13.260;2024-02-21T08:05:24;24.53;;;8.70;;
19193;SDS011;9729;52.296;13.260;2024-02-21T08:07:52;27.50;;;9.43;;
19193;SDS011;9729;52.296;13.260;2024-02-21T08:10:18;22.83;;;9.87;;
19193;SDS011;9729;52.296;13.260;2024-02-21T08:12:44;26.83;;;10.80;;
19193;SDS011;9729;52.296;13.260;2024-02-21T08:15:10;27.60;;;11.27;;
19193;SDS011;9729;52.296;13.260;2024-02-21T08:17:37;23.67;;;9.63;;
19193;SDS011;9729;52.296;13.260;2024-02-21T08:20:04;19.50;;;8.17;;
19193;SDS011;9729;52.296;13.260;2024-02-21T08:22:31;29.73;;;10.30;;
19193;SDS011;9729;52.296;13.260;2024-02-21T08:24:58;24.80;;;9.23;;
19193;SDS011;9729;52.296;13.260;2024-02-21T08:27:25;21.10;;;10.70;;
19193;SDS011;9729;52.296;13.260;2024-02-21T08:29:51;20.13;;;8.40;;
19193;SDS011;9729;52.296;13.260;2024-02-21T08:32:18;38.77;;;11.90;;
19193;SDS011;9729;52.296;13.260;2024-02-21T08:34:44;18.80;;;8.30;;
19193;SDS011;9729;52.296;13.260;2024-02-21T08:37:10;29.60;;;9.03;;
19193;SDS011;9729;52.296;13.260;2024-02-21T08:39:37;23.37;;;8.97;;
19193;SDS011;9729;52.296;13.260;2024-02-21T08:42:04;30.63;;;9.60;;
19193;SDS011;9729;52.296;13.260;2024-02-21T08:44:31;22.07;;;9.07;;
19193;SDS011;9729;52.296;13.260;2024-02-21T08:46:57;27.67;;;9.17;;
19193;SDS011;9729;52.296;13.260;2024-02-21T08:49:23;21.53;;;9.10;;
19193;SDS011;9729;52.296;13.260;2024-02-21T08:51:52;18.93;;;8.70;;
19193;SDS011;9729;52.296;13.260;2024-02-21T08:54:18;22.57;;;9.03;;
19193;SDS011;9729;52.296;13.260;2024-02-21T08:56:45;25.97;;;8.87;;
19193;SDS011;9729;52.296;13.260;2024-02-21T08:59:12;30.20;;;11.23;;
19193;SDS011;9729;52.296;13.260;2024-02-21T09:01:40;22.80;;;10.10;;
19193;SDS011;9729;52.296;13.260;2024-02-21T09:04:06;22.13;;;10.50;;
19193;SDS011;9729;52.296;13.260;2024-02-21T09:06:32;21.77;;;11.03;;
19193;SDS011;9729;52.296;13.260;2024-02-21T09:09:02;24.43;;;8.80;;
19193;SDS011;9729;52.296;13.260;2024-02-21T09:11:28;25.43;;;9.80;;
19193;SDS011;9729;52.296;13.260;2024-02-21T09:13:54;20.00;;;7.87;;
19193;SDS011;9729;52.296;13.260;2024-02-21T09:16:22;25.17;;;9.37;;
19193;SDS011;9729;52.296;13.260;2024-02-21T09:18:48;22.67;;;9.40;;
19193;SDS011;9729;52.296;13.260;2024-02-21T09:21:15;25.70;;;10.00;;
19193;SDS011;9729;52.296;13.260;2024-02-21T09:23:41;22.97;;;9.57;;
19193;SDS011;9729;52.296;13.260;2024-02-21T09:26:08;27.40;;;10.33;;
19193;SDS011;9729;52.296;13.260;2024-02-21T09:28:38;20.73;;;9.43;;
19193;SDS011;9729;52.296;13.260;2024-02-21T09:31:05;20.70;;;11.07;;
19193;SDS011;9729;52.296;13.260;2024-02-21T09:33:32;28.43;;;10.37;;
19193;SDS011;9729;52.296;13.260;2024-02-21T09:35:59;27.17;;;9.73;;
19193;SDS011;9729;52.296;13.260;2024-02-21T09:38:26;23.03;;;10.53;;
19193;SDS011;9729;52.296;13.260;2024-02-21T09:40:53;22.13;;;10.30;;
19193;SDS011;9729;52.296;13.260;2024-02-21T09:43:25;24.03;;;9.57;;
19193;SDS011;9729;52.296;13.260;2024-02-21T09:45:52;25.03;;;9.03;;
19193;SDS011;9729;52.296;13.260;2024-02-21T09:48:25;20.83;;;9.93;;
19193;SDS011;9729;52.296;13.260;2024-02-21T09:50:58;20.63;;;11.03;;
19193;SDS011;9729;52.296;13.260;2024-02-21T09:53:25;30.77;;;10.83;;
19193;SDS011;9729;52.296;13.260;2024-02-21T09:55:52;22.27;;;10.43;;
19193;SDS011;9729;52.296;13.260;2024-02-21T09:58:18;28.53;;;11.50;;
19193;SDS011;9729;52.296;13.260;2024-02-21T10:00:45;22.53;;;9.80;;
19193;SDS011;9729;52.296;13.260;2024-02-21T10:03:12;22.47;;;11.37;;
19193;SDS011;9729;52.296;13.260;2024-02-21T10:05:38;24.30;;;11.03;;
19193;SDS011;9729;52.296;13.260;2024-02-21T10:08:06;22.20;;;9.77;;
19193;SDS011;9729;52.296;13.260;2024-02-21T10:10:40;24.40;;;9.93;;
19193;SDS011;9729;52.296;13.260;2024-02-21T10:13:09;20.03;;;8.33;;
19193;SDS011;9729;52.296;13.260;2024-02-21T10:15:35;23.97;;;9.07;;
19193;SDS011;9729;52.296;13.260;2024-02-21T10:18:02;16.13;;;9.53;;
19193;SDS011;9729;52.296;13.260;2024-02-21T10:20:29;20.07;;;10.37;;
19193;SDS011;9729;52.296;13.260;2024-02-21T10:23:02;16.23;;;9.53;;
19193;SDS011;9729;52.296;13.260;2024-02-21T10:25:34;14.20;;;9.13;;
19193;SDS011;9729;52.296;13.260;2024-02-21T10:28:01;24.70;;;10.13;;
19193;SDS011;9729;52.296;13.260;2024-02-21T10:30:28;24.43;;;11.43;;
19193;SDS011;9729;52.296;13.260;2024-02-21T10:32:55;20.37;;;8.77;;
19193;SDS011;9729;52.296;13.260;2024-02-21T10:35:25;17.60;;;9.33;;
19193;SDS011;9729;52.296;13.260;2024-02-21T10:37:53;23.57;;;10.27;;
19193;SDS011;9729;52.296;13.260;2024-02-21T10:40:20;16.27;;;9.47;;
19193;SDS011;9729;52.296;13.260;2024-02-21T10:42:49;22.27;;;9.60;;
19193;SDS011;9729;52.296;13.260;2024-02-21T10:45:18;21.17;;;9.90;;
19193;SDS011;9729;52.296;13.260;2024-02-21T10:47:45;17.53;;;8.63;;
19193;SDS011;9729;52.296;13.260;2024-02-21T10:50:14;21.97;;;8.90;;
19193;SDS011;9729;52.296;13.260;2024-02-21T10:52:44;20.27;;;9.50;;
19193;SDS011;9729;52.296;13.260;2024-02-21T10:55:16;16.10;;;9.03;;
19193;SDS011;9729;52.296;13.260;2024-02-21T10:57:46;15.93;;;7.97;;
19193;SDS011;9729;52.296;13.260;2024-02-21T11:00:14;22.17;;;10.13;;
19193;SDS011;9729;52.296;13.260;2024-02-21T11:02:41;19.47;;;8.43;;
19193;SDS011;9729;52.296;13.260;2024-02-21T11:05:07;20.90;;;8.87;;
19193;SDS011;9729;52.296;13.260;2024-02-21T11:07:35;22.50;;;9.47;;
19193;SDS011;9729;52.296;13.260;2024-02-21T11:10:02;19.77;;;9.30;;
19193;SDS011;9729;52.296;13.260;2024-02-21T11:12:32;16.70;;;8.70;;
19193;SDS011;9729;52.296;13.260;2024-02-21T11:15:04;17.80;;;9.33;;
19193;SDS011;9729;52.296;13.260;2024-02-21T11:17:32;24.80;;;9.00;;
19193;SDS011;9729;52.296;13.260;2024-02-21T11:19:59;15.03;;;7.50;;
19193;SDS011;9729;52.296;13.260;2024-02-21T11:22:40;21.67;;;8.60;;
19193;SDS011;9729;52.296;13.260;2024-02-21T11:25:07;15.90;;;8.13;;
19193;SDS011;9729;52.296;13.260;2024-02-21T11:27:36;16.57;;;8.87;;
19193;SDS011;9729;52.296;13.260;2024-02-21T11:30:04;21.23;;;8.60;;
19193;SDS011;9729;52.296;13.260;2024-02-21T11:32:32;22.93;;;9.37;;
19193;SDS011;9729;52.296;13.260;2024-02-21T11:34:59;25.10;;;8.63;;
19193;SDS011;9729;52.296;13.260;2024-02-21T11:37:26;18.93;;;8.83;;
19193;SDS011;9729;52.296;13.260;2024-02-21T11:39:53;14.33;;;8.13;;
19193;SDS011;9729;52.296;13.260;2024-02-21T11:42:19;19.40;;;9.20;;
19193;SDS011;9729;52.296;13.260;2024-02-21T11:44:46;19.63;;;7.93;;
19193;SDS011;9729;52.296;13.260;2024-02-21T11:47:13;20.63;;;9.07;;
19193;SDS011;9729;52.296;13.260;2024-02-21T11:49:45;23.27;;;8.13;;
19193;SDS011;9729;52.296;13.260;2024-02-21T11:52:14;16.57;;;7.67;;
19193;SDS011;9729;52.296;13.260;2024-02-21T11:54:41;11.77;;;7.53;;
19193;SDS011;9729;52.296;13.260;2024-02-21T11:57:08;20.10;;;8.77;;
19193;SDS011;9729;52.296;13.260;2024-02-21T11:59:34;13.23;;;7.77;;
19193;SDS011;9729;52.296;13.260;2024-02-21T12:02:01;21.97;;;8.60;;
19193;SDS011;9729;52.296;13.260;2024-02-21T12:04:28;15.17;;;8.43;;
19193;SDS011;9729;52.296;13.260;2024-02-21T12:06:57;18.47;;;8.47;;
19193;SDS011;9729;52.296;13.260;2024-02-21T12:09:24;17.73;;;8.03;;
19193;SDS011;9729;52.296;13.260;2024-02-21T12:11:56;14.43;;;8.30;;
19193;SDS011;9729;52.296;13.260;2024-02-21T12:14:24;16.33;;;7.87;;
19193;SDS011;9729;52.296;13.260;2024-02-21T12:16:50;16.30;;;8.07;;
19193;SDS011;9729;52.296;13.260;2024-02-21T12:19:17;19.30;;;8.27;;
19193;SDS011;9729;52.296;13.260;2024-02-21T12:21:43;15.47;;;7.30;;
19193;SDS011;9729;52.296;13.260;2024-02-21T12:24:14;16.73;;;9.10;;
19193;SDS011;9729;52.296;13.260;2024-02-21T12:26:41;15.60;;;8.03;;
19193;SDS011;9729;52.296;13.260;2024-02-21T12:29:07;18.87;;;8.00;;
19193;SDS011;9729;52.296;13.260;2024-02-21T12:31:35;15.40;;;8.10;;
19193;SDS011;9729;52.296;13.260;2024-02-21T12:34:01;15.70;;;8.33;;
19193;SDS011;9729;52.296;13.260;2024-02-21T12:36:28;17.00;;;8.63;;
19193;SDS011;9729;52.296;13.260;2024-02-21T12:38:54;14.07;;;7.23;;
19193;SDS011;9729;52.296;13.260;2024-02-21T12:41:22;16.30;;;7.47;;
19193;SDS011;9729;52.296;13.260;2024-02-21T12:43:50;19.43;;;7.83;;
19193;SDS011;9729;52.296;13.260;2024-02-21T12:46:16;14.93;;;7.30;;
19193;SDS011;9729;52.296;13.260;2024-02-21T12:48:43;14.53;;;7.77;;
19193;SDS011;9729;52.296;13.260;2024-02-21T12:51:09;11.90;;;7.63;;
19193;SDS011;9729;52.296;13.260;2024-02-21T12:53:36;19.87;;;7.70;;
19193;SDS011;9729;52.296;13.260;2024-02-21T12:56:02;14.87;;;9.67;;
19193;SDS011;9729;52.296;13.260;2024-02-21T12:58:31;11.80;;;7.27;;
19193;SDS011;9729;52.296;13.260;2024-02-21T13:00:57;14.60;;;7.23;;
19193;SDS011;9729;52.296;13.260;2024-02-21T13:03:24;15.83;;;8.07;;
19193;SDS011;9729;52.296;13.260;2024-02-21T13:05:50;18.03;;;7.77;;
19193;SDS011;9729;52.296;13.260;2024-02-21T13:08:17;14.33;;;7.10;;
19193;SDS011;9729;52.296;13.260;2024-02-21T13:10:46;13.93;;;6.77;;
19193;SDS011;9729;52.296;13.260;2024-02-21T13:13:14;13.67;;;7.27;;
19193;SDS011;9729;52.296;13.260;2024-02-21T13:15:41;10.67;;;6.80;;
19193;SDS011;9729;52.296;13.260;2024-02-21T13:18:08;8.13;;;5.80;;
19193;SDS011;9729;52.296;13.260;2024-02-21T13:20:35;10.83;;;6.43;;
19193;SDS011;9729;52.296;13.260;2024-02-21T13:23:02;14.13;;;6.23;;
19193;SDS011;9729;52.296;13.260;2024-02-21T13:25:28;11.17;;;6.57;;
19193;SDS011;9729;52.296;13.260;2024-02-21T13:27:55;15.33;;;6.10;;
19193;SDS011;9729;52.296;13.260;2024-02-21T13:30:21;13.37;;;7.00;;
19193;SDS011;9729;52.296;13.260;2024-02-21T13:32:51;11.50;;;5.57;;
19193;SDS011;9729;52.296;13.260;2024-02-21T13:35:17;13.53;;;6.77;;
19193;SDS011;9729;52.296;13.260;2024-02-21T13:37:43;10.50;;;5.60;;
19193;SDS011;9729;52.296;13.260;2024-02-21T13:40:10;14.23;;;6.53;;
19193;SDS011;9729;52.296;13.260;2024-02-21T13:42:38;9.83;;;5.80;;
19193;SDS011;9729;52.296;13.260;2024-02-21T13:45:05;13.63;;;6.97;;
19193;SDS011;9729;52.296;13.260;2024-02-21T13:47:33;13.50;;;7.20;;
19193;SDS011;9729;52.296;13.260;2024-02-21T13:50:02;16.00;;;6.17;;
19193;SDS011;9729;52.296;13.260;2024-02-21T13:52:30;7.00;;;5.27;;
19193;SDS011;9729;52.296;13.260;2024-02-21T13:54:56;10.10;;;5.93;;
19193;SDS011;9729;52.296;13.260;2024-02-21T13:57:23;11.87;;;5.63;;
19193;SDS011;9729;52.296;13.260;2024-02-21T13:59:50;9.37;;;5.67;;
19193;SDS011;9729;52.296;13.260;2024-02-21T14:02:16;13.33;;;6.70;;
19193;SDS011;9729;52.296;13.260;2024-02-21T14:04:43;15.50;;;6.70;;
19193;SDS011;9729;52.296;13.260;2024-02-21T14:07:10;12.63;;;6.63;;
19193;SDS011;9729;52.296;13.260;2024-02-21T14:09:37;13.07;;;5.73;;
19193;SDS011;9729;52.296;13.260;2024-02-21T14:12:03;17.37;;;6.43;;
19193;SDS011;9729;52.296;13.260;2024-02-21T14:14:32;13.73;;;5.60;;
19193;SDS011;9729;52.296;13.260;2024-02-21T14:16:59;11.77;;;6.27;;
19193;SDS011;9729;52.296;13.260;2024-02-21T14:19:26;11.63;;;5.43;;
19193;SDS011;9729;52.296;13.260;2024-02-21T14:21:52;9.50;;;5.83;;
19193;SDS011;9729;52.296;13.260;2024-02-21T14:24:20;12.53;;;5.80;;
19193;SDS011;9729;52.296;13.260;2024-02-21T14:26:46;10.87;;;6.47;;
19193;SDS011;9729;52.296;13.260;2024-02-21T14:29:13;10.63;;;6.07;;
19193;SDS011;9729;52.296;13.260;2024-02-21T14:31:40;9.43;;;5.50;;